sensor_id;sensor_type;location;lat;lon;timestamp;pressure;altitude;pressure_sealevel;temperature;humidity
21574;BME280;10948;48.706;9.258;2023-04-07T00:01:27;97786.97;;;10.07;94.81
21574;BME280;10948;48.706;9.258;2023-04-07T00:03:52;97784.44;;;10.06;93.34
21574;BME280;10948;48.706;9.258;2023-04-07T00:06:18;97787.69;;;10.09;94.20
21574;BME280;10948;48.706;9.258;2023-04-07T00:08:43;97785.94;;;10.10;93.23
21574;BME280;10948;48.706;9.258;2023-04-07T00:11:08;97781.09;;;10.04;94.45
21574;BME280;10948;48.706;9.258;2023-04-07T00:13:33;97777.16;;;10.12;94.13
21574;BME280;10948;48.706;9.258;2023-04-07T00:15:58;97774.47;;;9.98;95.32
21574;BME280;10948;48.706;9.258;2023-04-07T00:18:24;97772.13;;;9.94;96.06
21574;BME280;10948;48.706;9.258;2023-04-07T00:20:49;97777.06;;;9.98;96.54
21574;BME280;10948;48.706;9.258;2023-04-07T00:23:14;97771.03;;;9.98;96.05
21574;BME280;10948;48.706;9.258;2023-04-07T00:25:40;97764.59;;;9.89;97.25
21574;BME280;10948;48.706;9.258;2023-04-07T00:28:05;97767.34;;;10.02;97.38
21574;BME280;10948;48.706;9.258;2023-04-07T00:30:30;97763.97;;;10.00;96.53
21574;BME280;10948;48.706;9.258;2023-04-07T00:32:55;97753.88;;;9.80;97.60
21574;BME280;10948;48.706;9.258;2023-04-07T00:35:21;97756.53;;;9.64;98.16
21574;BME280;10948;48.706;9.258;2023-04-07T00:37:46;97754.53;;;9.83;99.19
21574;BME280;10948;48.706;9.258;2023-04-07T00:40:11;97755.16;;;9.73;97.96
21574;BME280;10948;48.706;9.258;2023-04-07T00:42:37;97751.00;;;9.70;99.33
21574;BME280;10948;48.706;9.258;2023-04-07T00:45:02;97748.94;;;9.75;99.22
21574;BME280;10948;48.706;9.258;2023-04-07T00:47:27;97747.28;;;9.74;100.00
21574;BME280;10948;48.706;9.258;2023-04-07T00:49:52;97740.22;;;9.76;99.55
21574;BME280;10948;48.706;9.258;2023-04-07T00:52:18;97738.53;;;9.75;97.18
21574;BME280;10948;48.706;9.258;2023-04-07T00:54:43;97733.56;;;9.57;99.50
21574;BME280;10948;48.706;9.258;2023-04-07T00:57:10;97730.50;;;9.50;100.00
21574;BME280;10948;48.706;9.258;2023-04-07T00:59:35;97724.72;;;9.45;100.00
21574;BME280;10948;48.706;9.258;2023-04-07T01:02:02;97718.19;;;9.38;100.00
21574;BME280;10948;48.706;9.258;2023-04-07T01:07:17;97713.25;;;9.63;99.79
21574;BME280;10948;48.706;9.258;2023-04-07T01:09:49;97706.38;;;9.62;99.61
21574;BME280;10948;48.706;9.258;2023-04-07T01:12:23;97709.19;;;9.59;99.46
21574;BME280;10948;48.706;9.258;2023-04-07T01:14:53;97709.91;;;9.61;99.82
21574;BME280;10948;48.706;9.258;2023-04-07T01:17:20;97703.91;;;9.61;99.11
21574;BME280;10948;48.706;9.258;2023-04-07T01:19:50;97695.66;;;9.68;98.44
21574;BME280;10948;48.706;9.258;2023-04-07T01:22:19;97696.94;;;9.61;98.23
21574;BME280;10948;48.706;9.258;2023-04-07T01:29:54;97693.41;;;9.62;98.48
21574;BME280;10948;48.706;9.258;2023-04-07T01:32:20;97689.88;;;9.63;98.24
21574;BME280;10948;48.706;9.258;2023-04-07T01:34:48;97685.59;;;9.62;97.68
21574;BME280;10948;48.706;9.258;2023-04-07T01:37:14;97687.66;;;9.57;98.23
21574;BME280;10948;48.706;9.258;2023-04-07T01:39:40;97691.00;;;9.59;98.17
21574;BME280;10948;48.706;9.258;2023-04-07T01:42:06;97684.59;;;9.65;97.99
21574;BME280;10948;48.706;9.258;2023-04-07T01:44:32;97685.44;;;9.65;97.42
21574;BME280;10948;48.706;9.258;2023-04-07T01:46:58;97685.97;;;9.56;97.36
21574;BME280;10948;48.706;9.258;2023-04-07T01:49:24;97679.44;;;9.49;98.48
21574;BME280;10948;48.706;9.258;2023-04-07T01:51:50;97675.19;;;9.48;100.00
21574;BME280;10948;48.706;9.258;2023-04-07T01:54:16;97672.97;;;9.56;99.36
21574;BME280;10948;48.706;9.258;2023-04-07T01:56:42;97668.19;;;9.64;99.17
21574;BME280;10948;48.706;9.258;2023-04-07T01:59:07;97669.72;;;9.53;100.00
21574;BME280;10948;48.706;9.258;2023-04-07T02:01:32;97671.50;;;9.52;100.00
21574;BME280;10948;48.706;9.258;2023-04-07T02:04:04;97675.56;;;9.56;100.00
21574;BME280;10948;48.706;9.258;2023-04-07T02:06:32;97668.94;;;9.66;100.00
21574;BME280;10948;48.706;9.258;2023-04-07T02:08:59;97671.25;;;9.41;100.00
21574;BME280;10948;48.706;9.258;2023-04-07T02:11:26;97669.56;;;9.56;100.00
21574;BME280;10948;48.706;9.258;2023-04-07T02:13:53;97665.91;;;9.44;100.00
21574;BME280;10948;48.706;9.258;2023-04-07T02:16:19;97666.56;;;9.48;100.00
21574;BME280;10948;48.706;9.258;2023-04-07T02:18:44;97662.97;;;9.50;100.00
21574;BME280;10948;48.706;9.258;2023-04-07T02:21:10;97664.03;;;9.46;100.00
21574;BME280;10948;48.706;9.258;2023-04-07T02:23:36;97657.53;;;9.39;100.00
21574;BME280;10948;48.706;9.258;2023-04-07T02:26:02;97649.06;;;9.36;100.00
21574;BME280;10948;48.706;9.258;2023-04-07T02:28:27;97658.88;;;9.60;100.00
21574;BME280;10948;48.706;9.258;2023-04-07T02:30:52;97654.25;;;9.51;100.00
21574;BME280;10948;48.706;9.258;2023-04-07T02:33:17;97651.44;;;9.54;100.00
21574;BME280;10948;48.706;9.258;2023-04-07T02:35:42;97650.81;;;9.35;100.00
21574;BME280;10948;48.706;9.258;2023-04-07T02:38:08;97649.28;;;9.47;100.00
21574;BME280;10948;48.706;9.258;2023-04-07T02:40:33;97646.09;;;9.57;100.00
21574;BME280;10948;48.706;9.258;2023-04-07T02:43:00;97645.91;;;9.60;100.00
21574;BME280;10948;48.706;9.258;2023-04-07T02:45:25;97637.56;;;9.69;100.00
21574;BME280;10948;48.706;9.258;2023-04-07T02:47:51;97633.84;;;9.59;100.00
21574;BME280;10948;48.706;9.258;2023-04-07T02:50:16;97632.53;;;9.52;100.00
21574;BME280;10948;48.706;9.258;2023-04-07T02:52:41;97631.91;;;9.33;100.00
21574;BME280;10948;48.706;9.258;2023-04-07T02:55:07;97636.41;;;9.45;100.00
21574;BME280;10948;48.706;9.258;2023-04-07T02:57:32;97634.75;;;9.44;100.00
21574;BME280;10948;48.706;9.258;2023-04-07T02:59:57;97629.22;;;9.35;100.00
21574;BME280;10948;48.706;9.258;2023-04-07T03:02:23;97628.22;;;9.37;100.00
21574;BME280;10948;48.706;9.258;2023-04-07T03:04:49;97620.63;;;9.48;100.00
21574;BME280;10948;48.706;9.258;2023-04-07T03:07:15;97620.47;;;9.51;100.00
21574;BME280;10948;48.706;9.258;2023-04-07T03:09:40;97610.94;;;9.36;100.00
21574;BME280;10948;48.706;9.258;2023-04-07T03:12:05;97615.63;;;9.45;100.00
21574;BME280;10948;48.706;9.258;2023-04-07T03:14:30;97616.94;;;9.52;100.00
21574;BME280;10948;48.706;9.258;2023-04-07T03:16:56;97613.09;;;9.44;100.00
21574;BME280;10948;48.706;9.258;2023-04-07T03:19:21;97613.84;;;9.46;100.00
21574;BME280;10948;48.706;9.258;2023-04-07T03:21:46;97612.91;;;9.47;100.00
21574;BME280;10948;48.706;9.258;2023-04-07T03:24:12;97605.03;;;9.48;100.00
21574;BME280;10948;48.706;9.258;2023-04-07T03:26:37;97606.53;;;9.38;100.00
21574;BME280;10948;48.706;9.258;2023-04-07T03:29:02;97613.03;;;9.45;100.00
21574;BME280;10948;48.706;9.258;2023-04-07T03:31:28;97605.59;;;9.39;100.00
21574;BME280;10948;48.706;9.258;2023-04-07T03:33:54;97603.94;;;9.38;100.00
21574;BME280;10948;48.706;9.258;2023-04-07T03:36:19;97606.91;;;9.46;100.00
21574;BME280;10948;48.706;9.258;2023-04-07T03:38:45;97599.66;;;9.37;100.00
21574;BME280;10948;48.706;9.258;2023-04-07T03:41:11;97607.91;;;9.44;100.00
21574;BME280;10948;48.706;9.258;2023-04-07T03:43:36;97603.72;;;9.41;100.00
21574;BME280;10948;48.706;9.258;2023-04-07T03:46:01;97595.94;;;9.41;100.00
21574;BME280;10948;48.706;9.258;2023-04-07T03:48:26;97596.41;;;9.34;100.00
21574;BME280;10948;48.706;9.258;2023-04-07T03:50:52;97601.75;;;9.31;100.00
21574;BME280;10948;48.706;9.258;2023-04-07T03:53:19;97593.16;;;9.30;100.00
21574;BME280;10948;48.706;9.258;2023-04-07T03:55:44;97593.16;;;9.30;100.00
21574;BME280;10948;48.706;9.258;2023-04-07T03:58:09;97590.25;;;9.21;100.00
21574;BME280;10948;48.706;9.258;2023-04-07T04:00:35;97587.03;;;9.31;100.00
21574;BME280;10948;48.706;9.258;2023-04-07T04:03:00;97586.84;;;9.34;100.00
21574;BME280;10948;48.706;9.258;2023-04-07T04:05:26;97592.34;;;9.14;100.00
21574;BME280;10948;48.706;9.258;2023-04-07T04:07:51;97588.19;;;9.26;100.00
21574;BME280;10948;48.706;9.258;2023-04-07T04:10:17;97590.06;;;9.24;100.00
21574;BME280;10948;48.706;9.258;2023-04-07T04:12:42;97579.59;;;9.25;100.00
21574;BME280;10948;48.706;9.258;2023-04-07T04:15:08;97582.06;;;9.27;100.00
21574;BME280;10948;48.706;9.258;2023-04-07T04:17:33;97583.66;;;9.29;100.00
21574;BME280;10948;48.706;9.258;2023-04-07T04:19:58;97581.84;;;9.31;100.00
21574;BME280;10948;48.706;9.258;2023-04-07T04:22:24;97580.88;;;9.18;100.00
21574;BME280;10948;48.706;9.258;2023-04-07T04:24:49;97579.78;;;9.36;100.00
21574;BME280;10948;48.706;9.258;2023-04-07T04:27:14;97573.47;;;9.26;100.00
21574;BME280;10948;48.706;9.258;2023-04-07T04:29:40;97568.28;;;9.26;100.00
21574;BME280;10948;48.706;9.258;2023-04-07T04:32:05;97573.03;;;9.34;100.00
21574;BME280;10948;48.706;9.258;2023-04-07T04:34:30;97569.78;;;9.30;100.00
21574;BME280;10948;48.706;9.258;2023-04-07T04:36:56;97573.47;;;9.26;100.00
21574;BME280;10948;48.706;9.258;2023-04-07T04:39:21;97571.81;;;9.25;100.00
21574;BME280;10948;48.706;9.258;2023-04-07T04:41:46;97574.28;;;9.27;100.00
21574;BME280;10948;48.706;9.258;2023-04-07T04:44:11;97570.22;;;9.23;100.00
21574;BME280;10948;48.706;9.258;2023-04-07T04:46:37;97573.81;;;9.20;100.00
21574;BME280;10948;48.706;9.258;2023-04-07T04:49:02;97574.34;;;9.11;100.00
21574;BME280;10948;48.706;9.258;2023-04-07T04:51:27;97577.16;;;9.22;100.00
21574;BME280;10948;48.706;9.258;2023-04-07T04:53:52;97577.16;;;9.22;100.00
21574;BME280;10948;48.706;9.258;2023-04-07T04:56:18;97583.19;;;9.23;100.00
21574;BME280;10948;48.706;9.258;2023-04-07T04:58:43;97586.06;;;9.18;100.00
21574;BME280;10948;48.706;9.258;2023-04-07T05:01:13;97577.25;;;9.21;100.00
21574;BME280;10948;48.706;9.258;2023-04-07T05:03:38;97578.88;;;9.08;100.00
21574;BME280;10948;48.706;9.258;2023-04-07T05:06:04;97576.03;;;9.12;100.00
21574;BME280;10948;48.706;9.258;2023-04-07T05:08:30;97578.44;;;9.15;100.00
21574;BME280;10948;48.706;9.258;2023-04-07T05:10:56;97578.38;;;9.01;100.00
21574;BME280;10948;48.706;9.258;2023-04-07T05:13:21;97575.78;;;9.01;100.00
21574;BME280;10948;48.706;9.258;2023-04-07T05:15:46;97578.63;;;9.12;100.00
21574;BME280;10948;48.706;9.258;2023-04-07T05:18:11;97577.38;;;9.04;100.00
21574;BME280;10948;48.706;9.258;2023-04-07T05:20:37;97575.72;;;9.03;100.00
21574;BME280;10948;48.706;9.258;2023-04-07T05:23:02;97576.53;;;9.03;100.00
21574;BME280;10948;48.706;9.258;2023-04-07T05:25:28;97575.19;;;8.96;100.00
21574;BME280;10948;48.706;9.258;2023-04-07T05:27:54;97581.22;;;9.12;100.00
21574;BME280;10948;48.706;9.258;2023-04-07T05:30:19;97585.09;;;9.05;100.00
21574;BME280;10948;48.706;9.258;2023-04-07T05:32:45;97586.66;;;9.08;100.00
21574;BME280;10948;48.706;9.258;2023-04-07T05:35:10;97584.41;;;9.02;100.00
21574;BME280;10948;48.706;9.258;2023-04-07T05:37:35;97587.28;;;8.97;100.00
21574;BME280;10948;48.706;9.258;2023-04-07T05:40:00;97589.00;;;9.12;100.00
21574;BME280;10948;48.706;9.258;2023-04-07T05:42:26;97581.81;;;9.02;100.00
21574;BME280;10948;48.706;9.258;2023-04-07T05:44:51;97581.38;;;9.09;100.00
21574;BME280;10948;48.706;9.258;2023-04-07T05:47:16;97581.56;;;9.06;100.00
21574;BME280;10948;48.706;9.258;2023-04-07T05:49:41;97577.69;;;9.13;100.00
21574;BME280;10948;48.706;9.258;2023-04-07T05:52:13;97572.31;;;9.16;100.00
21574;BME280;10948;48.706;9.258;2023-04-07T05:54:38;97582.69;;;9.16;100.00
21574;BME280;10948;48.706;9.258;2023-04-07T05:57:06;97577.66;;;9.29;100.00
21574;BME280;10948;48.706;9.258;2023-04-07T05:59:32;97580.16;;;9.30;100.00
21574;BME280;10948;48.706;9.258;2023-04-07T06:01:57;97579.69;;;9.38;100.00
21574;BME280;10948;48.706;9.258;2023-04-07T06:04:22;97588.69;;;9.32;100.00
21574;BME280;10948;48.706;9.258;2023-04-07T06:06:48;97580.81;;;9.34;100.00
21574;BME280;10948;48.706;9.258;2023-04-07T06:09:13;97586.69;;;9.37;100.00
21574;BME280;10948;48.706;9.258;2023-04-07T06:11:38;97586.47;;;9.40;100.00
21574;BME280;10948;48.706;9.258;2023-04-07T06:14:04;97590.03;;;9.53;100.00
21574;BME280;10948;48.706;9.258;2023-04-07T06:16:29;97598.03;;;9.50;100.00
21574;BME280;10948;48.706;9.258;2023-04-07T06:18:54;97594.31;;;9.54;100.00
21574;BME280;10948;48.706;9.258;2023-04-07T06:21:20;97589.66;;;9.45;100.00
21574;BME280;10948;48.706;9.258;2023-04-07T06:23:45;97592.13;;;9.47;100.00
21574;BME280;10948;48.706;9.258;2023-04-07T06:26:11;97592.63;;;9.53;100.00
21574;BME280;10948;48.706;9.258;2023-04-07T06:28:36;97587.91;;;9.60;100.00
21574;BME280;10948;48.706;9.258;2023-04-07T06:31:02;97582.81;;;9.58;100.00
21574;BME280;10948;48.706;9.258;2023-04-07T06:33:27;97596.91;;;9.54;100.00
21574;BME280;10948;48.706;9.258;2023-04-07T06:35:52;97594.53;;;9.36;100.00
21574;BME280;10948;48.706;9.258;2023-04-07T06:38:18;97596.47;;;9.32;100.00
21574;BME280;10948;48.706;9.258;2023-04-07T06:40:43;97592.34;;;9.44;100.00
21574;BME280;10948;48.706;9.258;2023-04-07T06:43:08;97583.91;;;9.54;100.00
21574;BME280;10948;48.706;9.258;2023-04-07T06:45:33;97585.22;;;9.61;100.00
21574;BME280;10948;48.706;9.258;2023-04-07T06:47:58;97591.72;;;9.68;100.00
21574;BME280;10948;48.706;9.258;2023-04-07T06:50:24;97589.13;;;9.68;100.00
21574;BME280;10948;48.706;9.258;2023-04-07T06:52:50;97584.28;;;9.62;100.00
21574;BME280;10948;48.706;9.258;2023-04-07T06:55:15;97580.38;;;9.55;100.00
21574;BME280;10948;48.706;9.258;2023-04-07T06:57:41;97585.50;;;9.57;100.00
21574;BME280;10948;48.706;9.258;2023-04-07T07:00:06;97578.28;;;9.76;100.00
21574;BME280;10948;48.706;9.258;2023-04-07T07:02:33;97583.66;;;9.73;100.00
21574;BME280;10948;48.706;9.258;2023-04-07T07:04:58;97584.13;;;9.79;100.00
21574;BME280;10948;48.706;9.258;2023-04-07T07:07:23;97581.09;;;9.87;100.00
21574;BME280;10948;48.706;9.258;2023-04-07T07:09:49;97579.50;;;9.98;100.00
21574;BME280;10948;48.706;9.258;2023-04-07T07:12:15;97571.16;;;10.07;100.00
21574;BME280;10948;48.706;9.258;2023-04-07T07:14:41;97572.06;;;10.34;100.00
21574;BME280;10948;48.706;9.258;2023-04-07T07:17:07;97582.31;;;10.37;100.00
21574;BME280;10948;48.706;9.258;2023-04-07T07:19:32;97586.91;;;10.46;100.00
21574;BME280;10948;48.706;9.258;2023-04-07T07:21:57;97576.31;;;10.49;100.00
21574;BME280;10948;48.706;9.258;2023-04-07T07:24:22;97583.53;;;10.72;100.00
21574;BME280;10948;48.706;9.258;2023-04-07T07:26:47;97584.81;;;10.79;99.41
21574;BME280;10948;48.706;9.258;2023-04-07T07:29:13;97578.69;;;10.66;98.84
21574;BME280;10948;48.706;9.258;2023-04-07T07:31:38;97579.69;;;11.04;96.38
21574;BME280;10948;48.706;9.258;2023-04-07T07:34:03;97581.63;;;11.27;94.68
21574;BME280;10948;48.706;9.258;2023-04-07T07:36:28;97581.94;;;11.61;93.14
21574;BME280;10948;48.706;9.258;2023-04-07T07:38:56;97579.44;;;11.85;90.24
21574;BME280;10948;48.706;9.258;2023-04-07T07:41:21;97581.00;;;12.61;84.35
21574;BME280;10948;48.706;9.258;2023-04-07T07:43:47;97585.38;;;13.20;80.49
21574;BME280;10948;48.706;9.258;2023-04-07T07:46:12;97584.59;;;13.30;75.81
21574;BME280;10948;48.706;9.258;2023-04-07T07:48:37;97587.41;;;13.96;75.80
21574;BME280;10948;48.706;9.258;2023-04-07T07:51:03;97583.16;;;14.50;70.89
21574;BME280;10948;48.706;9.258;2023-04-07T07:53:28;97586.25;;;14.44;67.37
21574;BME280;10948;48.706;9.258;2023-04-07T07:55:53;97580.28;;;15.18;67.29
21574;BME280;10948;48.706;9.258;2023-04-07T07:58:20;97579.34;;;14.65;67.63
21574;BME280;10948;48.706;9.258;2023-04-07T08:00:45;97583.03;;;15.48;64.93
21574;BME280;10948;48.706;9.258;2023-04-07T08:03:10;97581.75;;;16.34;64.29
21574;BME280;10948;48.706;9.258;2023-04-07T08:05:36;97584.75;;;15.38;62.92
21574;BME280;10948;48.706;9.258;2023-04-07T08:08:01;97576.81;;;19.74;54.86
21574;BME280;10948;48.706;9.258;2023-04-07T08:10:27;97582.09;;;21.34;49.32
21574;BME280;10948;48.706;9.258;2023-04-07T08:12:52;97575.88;;;23.91;44.54
21574;BME280;10948;48.706;9.258;2023-04-07T08:15:17;97588.31;;;25.58;42.51
21574;BME280;10948;48.706;9.258;2023-04-07T08:17:42;97587.88;;;24.24;41.57
21574;BME280;10948;48.706;9.258;2023-04-07T08:20:08;97583.75;;;25.37;40.71
21574;BME280;10948;48.706;9.258;2023-04-07T08:22:35;97589.41;;;25.49;39.67
21574;BME280;10948;48.706;9.258;2023-04-07T08:25:00;97597.34;;;27.75;38.62
21574;BME280;10948;48.706;9.258;2023-04-07T08:27:25;97599.91;;;27.43;36.77
21574;BME280;10948;48.706;9.258;2023-04-07T08:30:00;97592.66;;;27.97;35.30
21574;BME280;10948;48.706;9.258;2023-04-07T08:32:32;97593.16;;;27.47;35.25
21574;BME280;10948;48.706;9.258;2023-04-07T08:34:58;97590.81;;;29.39;34.48
21574;BME280;10948;48.706;9.258;2023-04-07T08:37:23;97593.69;;;31.04;32.05
21574;BME280;10948;48.706;9.258;2023-04-07T08:39:48;97586.88;;;28.06;33.42
21574;BME280;10948;48.706;9.258;2023-04-07T08:42:13;97589.56;;;30.59;32.36
21574;BME280;10948;48.706;9.258;2023-04-07T08:44:40;97582.06;;;30.18;32.76
21574;BME280;10948;48.706;9.258;2023-04-07T08:47:05;97584.44;;;28.50;33.90
21574;BME280;10948;48.706;9.258;2023-04-07T08:49:31;97595.59;;;30.79;31.89
21574;BME280;10948;48.706;9.258;2023-04-07T08:51:57;97588.53;;;31.02;31.50
21574;BME280;10948;48.706;9.258;2023-04-07T08:54:24;97587.09;;;30.64;30.88
21574;BME280;10948;48.706;9.258;2023-04-07T08:56:49;97588.69;;;32.77;30.18
21574;BME280;10948;48.706;9.258;2023-04-07T08:59:14;97590.72;;;29.08;31.50
21574;BME280;10948;48.706;9.258;2023-04-07T09:01:42;97586.66;;;27.82;33.77
21574;BME280;10948;48.706;9.258;2023-04-07T09:04:08;97595.50;;;26.82;35.10
21574;BME280;10948;48.706;9.258;2023-04-07T09:06:33;97590.16;;;27.16;36.22
21574;BME280;10948;48.706;9.258;2023-04-07T09:09:00;97593.38;;;27.05;36.13
21574;BME280;10948;48.706;9.258;2023-04-07T09:11:27;97587.84;;;25.19;36.24
21574;BME280;10948;48.706;9.258;2023-04-07T09:13:52;97590.19;;;26.27;37.33
21574;BME280;10948;48.706;9.258;2023-04-07T09:16:18;97594.56;;;26.62;37.27
21574;BME280;10948;48.706;9.258;2023-04-07T09:18:44;97590.84;;;27.37;35.99
21574;BME280;10948;48.706;9.258;2023-04-07T09:21:09;97586.63;;;26.75;36.01
21574;BME280;10948;48.706;9.258;2023-04-07T09:23:36;97586.50;;;26.28;36.74
21574;BME280;10948;48.706;9.258;2023-04-07T09:26:18;97581.72;;;26.51;37.32
21574;BME280;10948;48.706;9.258;2023-04-07T09:28:44;97580.56;;;25.27;37.10
21574;BME280;10948;48.706;9.258;2023-04-07T09:31:10;97581.34;;;24.78;38.68
21574;BME280;10948;48.706;9.258;2023-04-07T09:33:35;97587.50;;;24.93;39.40
21574;BME280;10948;48.706;9.258;2023-04-07T09:36:04;97586.41;;;24.73;38.04
21574;BME280;10948;48.706;9.258;2023-04-07T09:38:34;97578.81;;;23.73;39.15
21574;BME280;10948;48.706;9.258;2023-04-07T09:41:10;97582.41;;;23.66;39.66
21574;BME280;10948;48.706;9.258;2023-04-07T09:43:37;97580.06;;;23.63;39.25
21574;BME280;10948;48.706;9.258;2023-04-07T09:46:07;97578.97;;;22.34;40.51
21574;BME280;10948;48.706;9.258;2023-04-07T09:48:32;97580.75;;;23.04;41.00
21574;BME280;10948;48.706;9.258;2023-04-07T09:51:05;97572.16;;;22.56;40.28
21574;BME280;10948;48.706;9.258;2023-04-07T09:53:41;97576.72;;;23.16;40.79
21574;BME280;10948;48.706;9.258;2023-04-07T09:56:07;97576.19;;;22.82;40.37
21574;BME280;10948;48.706;9.258;2023-04-07T09:58:33;97577.34;;;22.17;40.46
21574;BME280;10948;48.706;9.258;2023-04-07T10:01:00;97577.53;;;22.08;41.15
21574;BME280;10948;48.706;9.258;2023-04-07T10:03:26;97580.47;;;22.29;40.63
21574;BME280;10948;48.706;9.258;2023-04-07T10:05:52;97578.31;;;21.28;41.93
21574;BME280;10948;48.706;9.258;2023-04-07T10:08:17;97579.34;;;20.94;42.88
21574;BME280;10948;48.706;9.258;2023-04-07T10:10:43;97577.22;;;21.79;43.06
21574;BME280;10948;48.706;9.258;2023-04-07T10:13:10;97575.69;;;20.53;43.28
21574;BME280;10948;48.706;9.258;2023-04-07T10:15:35;97573.63;;;21.06;43.43
21574;BME280;10948;48.706;9.258;2023-04-07T10:18:01;97570.34;;;21.20;43.30
21574;BME280;10948;48.706;9.258;2023-04-07T10:20:30;97570.75;;;20.58;42.88
21574;BME280;10948;48.706;9.258;2023-04-07T10:22:55;97577.91;;;20.66;43.75
21574;BME280;10948;48.706;9.258;2023-04-07T10:25:26;97573.13;;;20.77;44.28
21574;BME280;10948;48.706;9.258;2023-04-07T10:27:52;97578.22;;;21.04;44.06
21574;BME280;10948;48.706;9.258;2023-04-07T10:30:28;97568.41;;;21.54;43.83
21574;BME280;10948;48.706;9.258;2023-04-07T10:32:54;97582.66;;;21.53;43.96
21574;BME280;10948;48.706;9.258;2023-04-07T10:35:20;97582.94;;;21.34;43.90
21574;BME280;10948;48.706;9.258;2023-04-07T10:40:30;97576.94;;;21.16;44.25
21574;BME280;10948;48.706;9.258;2023-04-07T10:42:55;97570.34;;;21.28;44.00
21574;BME280;10948;48.706;9.258;2023-04-07T10:48:08;97566.50;;;21.15;43.29
21574;BME280;10948;48.706;9.258;2023-04-07T10:50:34;97580.03;;;20.62;45.20
21574;BME280;10948;48.706;9.258;2023-04-07T10:53:07;97577.53;;;20.27;45.89
21574;BME280;10948;48.706;9.258;2023-04-07T11:00:42;97580.56;;;20.15;46.49
21574;BME280;10948;48.706;9.258;2023-04-07T11:03:28;97578.47;;;19.40;47.61
21574;BME280;10948;48.706;9.258;2023-04-07T11:06:03;97584.56;;;20.44;46.95
21574;BME280;10948;48.706;9.258;2023-04-07T11:08:40;97578.50;;;20.26;46.61
21574;BME280;10948;48.706;9.258;2023-04-07T11:11:07;97586.25;;;20.02;46.37
21574;BME280;10948;48.706;9.258;2023-04-07T11:13:49;97582.13;;;20.25;46.71
21574;BME280;10948;48.706;9.258;2023-04-07T11:16:15;97580.78;;;20.47;45.81
21574;BME280;10948;48.706;9.258;2023-04-07T11:18:41;97584.53;;;20.11;45.97
21574;BME280;10948;48.706;9.258;2023-04-07T11:21:07;97578.13;;;20.13;45.91
21574;BME280;10948;48.706;9.258;2023-04-07T11:23:40;97588.94;;;19.85;46.43
21574;BME280;10948;48.706;9.258;2023-04-07T11:26:05;97581.63;;;19.61;46.70
21574;BME280;10948;48.706;9.258;2023-04-07T11:28:31;97590.03;;;19.57;46.43
21574;BME280;10948;48.706;9.258;2023-04-07T11:30:56;97587.78;;;19.17;47.26
21574;BME280;10948;48.706;9.258;2023-04-07T11:33:24;97591.00;;;19.11;47.19
21574;BME280;10948;48.706;9.258;2023-04-07T11:35:52;97588.19;;;18.95;47.65
21574;BME280;10948;48.706;9.258;2023-04-07T11:38:17;97585.41;;;18.70;48.33
21574;BME280;10948;48.706;9.258;2023-04-07T11:40:43;97588.56;;;18.73;48.89
21574;BME280;10948;48.706;9.258;2023-04-07T11:43:21;97590.44;;;18.63;48.73
21574;BME280;10948;48.706;9.258;2023-04-07T11:46:32;97599.44;;;18.70;48.94
21574;BME280;10948;48.706;9.258;2023-04-07T11:48:36;97599.31;;;18.35;48.03
21574;BME280;10948;48.706;9.258;2023-04-07T11:51:02;97598.31;;;18.27;48.45
21574;BME280;10948;48.706;9.258;2023-04-07T11:53:28;97601.38;;;18.41;48.76
21574;BME280;10948;48.706;9.258;2023-04-07T11:56:00;97604.09;;;18.49;48.24
21574;BME280;10948;48.706;9.258;2023-04-07T11:58:26;97604.03;;;18.13;48.23
21574;BME280;10948;48.706;9.258;2023-04-07T12:00:54;97602.66;;;17.99;48.22
21574;BME280;10948;48.706;9.258;2023-04-07T12:03:19;97608.19;;;18.15;47.91
21574;BME280;10948;48.706;9.258;2023-04-07T12:05:45;97602.31;;;17.56;49.25
21574;BME280;10948;48.706;9.258;2023-04-07T12:08:11;97599.78;;;17.93;48.89
21574;BME280;10948;48.706;9.258;2023-04-07T12:10:37;97603.00;;;17.58;48.97
21574;BME280;10948;48.706;9.258;2023-04-07T12:13:05;97609.91;;;17.59;49.25
21574;BME280;10948;48.706;9.258;2023-04-07T12:15:30;97612.41;;;17.51;49.42
21574;BME280;10948;48.706;9.258;2023-04-07T12:17:55;97617.66;;;17.42;49.79
21574;BME280;10948;48.706;9.258;2023-04-07T12:20:20;97623.50;;;17.64;50.22
21574;BME280;10948;48.706;9.258;2023-04-07T12:22:46;97623.16;;;17.20;51.04
21574;BME280;10948;48.706;9.258;2023-04-07T12:25:11;97620.94;;;17.15;52.68
21574;BME280;10948;48.706;9.258;2023-04-07T12:27:36;97626.31;;;17.04;53.59
21574;BME280;10948;48.706;9.258;2023-04-07T12:30:01;97620.31;;;16.54;55.04
21574;BME280;10948;48.706;9.258;2023-04-07T12:32:28;97625.91;;;16.60;56.05
21574;BME280;10948;48.706;9.258;2023-04-07T12:34:53;97626.00;;;16.59;57.59
21574;BME280;10948;48.706;9.258;2023-04-07T12:37:18;97626.59;;;16.62;58.37
21574;BME280;10948;48.706;9.258;2023-04-07T12:39:44;97642.66;;;16.69;58.68
21574;BME280;10948;48.706;9.258;2023-04-07T12:42:09;97631.88;;;16.72;59.50
21574;BME280;10948;48.706;9.258;2023-04-07T12:44:36;97635.31;;;16.63;59.79
21574;BME280;10948;48.706;9.258;2023-04-07T12:47:01;97635.03;;;16.36;60.36
21574;BME280;10948;48.706;9.258;2023-04-07T12:49:26;97626.13;;;16.27;60.60
21574;BME280;10948;48.706;9.258;2023-04-07T12:51:51;97634.06;;;16.16;60.71
21574;BME280;10948;48.706;9.258;2023-04-07T12:54:17;97633.31;;;16.05;60.42
21574;BME280;10948;48.706;9.258;2023-04-07T12:56:42;97641.16;;;15.84;62.04
21574;BME280;10948;48.706;9.258;2023-04-07T12:59:07;97644.59;;;15.96;62.43
21574;BME280;10948;48.706;9.258;2023-04-07T13:01:33;97649.88;;;15.85;63.02
21574;BME280;10948;48.706;9.258;2023-04-07T13:04:02;97645.97;;;15.79;64.97
21574;BME280;10948;48.706;9.258;2023-04-07T13:06:27;97654.75;;;15.69;67.04
21574;BME280;10948;48.706;9.258;2023-04-07T13:08:52;97653.41;;;15.43;67.20
21574;BME280;10948;48.706;9.258;2023-04-07T13:11:18;97655.75;;;15.57;67.76
21574;BME280;10948;48.706;9.258;2023-04-07T13:13:43;97644.16;;;15.59;66.69